createdAt,value
2023-04-05T00:00:47.184Z,79.54
2023-04-05T00:03:20.275Z,80.52
2023-04-05T00:05:54.745Z,80.73
2023-04-05T00:08:28.501Z,80.93
2023-04-05T00:11:02.838Z,82.02
2023-04-05T00:13:35.841Z,81.93
2023-04-05T00:16:09.396Z,82.06
2023-04-05T00:18:46.091Z,81.64
2023-04-05T00:21:21.687Z,82.46
2023-04-05T00:23:58.462Z,82.08
2023-04-05T00:26:32.794Z,81.72
2023-04-05T00:29:06.027Z,81.96
2023-04-05T00:31:39.053Z,81.25
2023-04-05T00:34:12.517Z,82.16
2023-04-05T00:36:45.538Z,81.67
2023-04-05T00:39:18.686Z,81.88
2023-04-05T00:41:52.997Z,82.20
2023-04-05T00:44:26.651Z,82.71
2023-04-05T00:46:59.631Z,81.52
2023-04-05T00:49:36.409Z,81.79
2023-04-05T00:52:09.530Z,82.11
2023-04-05T00:54:43.373Z,82.52
2023-04-05T00:57:18.252Z,82.79
2023-04-05T00:59:51.843Z,82.40
2023-04-05T01:02:33.785Z,82.69
2023-04-05T01:05:16.344Z,82.56
2023-04-05T01:07:59.678Z,83.01
2023-04-05T01:10:39.660Z,83.47
2023-04-05T01:13:14.190Z,82.53
2023-04-05T01:15:47.289Z,84.25
2023-04-05T01:18:21.971Z,83.18
2023-04-05T01:21:02.937Z,84.25
2023-04-05T01:23:46.559Z,83.23
2023-04-05T01:26:50.031Z,84.93
2023-04-05T01:29:52.295Z,83.03
2023-04-05T01:32:46.200Z,82.86
2023-04-05T01:35:27.100Z,83.51
2023-04-05T01:38:04.912Z,84.33
2023-04-05T01:40:39.205Z,84.35
2023-04-05T01:43:16.042Z,84.57
2023-04-05T01:45:50.445Z,84.47
2023-04-05T01:48:23.502Z,85.40
2023-04-05T01:50:56.559Z,85.57
2023-04-05T01:53:29.566Z,84.80
2023-04-05T01:56:03.199Z,86.27
2023-04-05T01:58:36.172Z,85.71
2023-04-05T02:01:10.577Z,85.64
2023-04-05T02:03:43.726Z,86.12
2023-04-05T02:06:16.796Z,85.15
2023-04-05T02:08:49.786Z,86.42
2023-04-05T02:11:22.754Z,85.93
2023-04-05T02:13:55.733Z,86.14
2023-04-05T02:16:33.420Z,85.66
2023-04-05T02:19:06.994Z,86.67
2023-04-05T02:21:40.874Z,86.26
2023-04-05T02:24:13.950Z,87.06
2023-04-05T02:26:47.080Z,86.86
2023-04-05T02:29:20.092Z,87.03
2023-04-05T02:31:54.573Z,87.31
2023-04-05T02:34:27.592Z,88.03
2023-04-05T02:37:01.800Z,87.59
2023-04-05T02:39:34.831Z,87.18
2023-04-05T02:42:07.869Z,86.95
2023-04-05T02:44:41.087Z,85.74
2023-04-05T02:47:21.199Z,86.49
2023-04-05T02:49:54.202Z,89.07
2023-04-05T02:52:27.199Z,87.21
2023-04-05T02:55:00.160Z,88.00
2023-04-05T02:57:33.145Z,88.83
2023-04-05T03:00:08.925Z,87.96
2023-04-05T03:02:43.281Z,88.31
2023-04-05T03:05:18.718Z,88.08
2023-04-05T03:07:51.937Z,87.72
2023-04-05T03:10:25.265Z,89.30
2023-04-05T03:12:58.685Z,88.18
2023-04-05T03:15:35.634Z,89.02
2023-04-05T03:18:10.674Z,88.41
2023-04-05T03:20:45.789Z,88.36
2023-04-05T03:23:18.905Z,87.72
2023-04-05T03:25:52.698Z,89.28
2023-04-05T03:28:25.901Z,88.94
2023-04-05T03:30:59.008Z,88.07
2023-04-05T03:33:33.323Z,88.20
2023-04-05T03:36:07.134Z,88.71
2023-04-05T03:38:42.538Z,89.01
2023-04-05T03:41:16.243Z,88.10
2023-04-05T03:43:50.002Z,88.26
2023-04-05T03:46:23.125Z,88.85
2023-04-05T03:48:59.091Z,89.01
2023-04-05T03:51:32.686Z,89.27
2023-04-05T03:54:06.168Z,88.13
2023-04-05T03:56:39.257Z,89.42
2023-04-05T03:59:12.388Z,89.34
2023-04-05T04:01:45.570Z,88.20
2023-04-05T04:04:19.897Z,89.26
2023-04-05T04:06:52.866Z,88.52
2023-04-05T04:09:28.050Z,88.32
2023-04-05T04:12:01.018Z,89.60
2023-04-05T04:14:36.368Z,88.93
2023-04-05T04:17:09.371Z,89.34
2023-04-05T04:19:43.655Z,88.67
2023-04-05T04:22:20.753Z,88.89
2023-04-05T04:24:54.723Z,89.75
2023-04-05T04:27:30.212Z,89.92
2023-04-05T04:30:04.432Z,89.77
2023-04-05T04:32:52.807Z,90.22
2023-04-05T04:35:29.533Z,90.17
2023-04-05T04:38:04.899Z,89.67
2023-04-05T04:40:39.621Z,89.90
2023-04-05T04:43:17.347Z,90.13
2023-04-05T04:45:54.683Z,90.79
2023-04-05T04:48:27.707Z,89.08
2023-04-05T04:51:04.274Z,89.30
2023-04-05T04:53:37.294Z,88.76
2023-04-05T04:56:12.106Z,90.29
2023-04-05T04:58:45.464Z,90.14
2023-04-05T05:01:18.534Z,90.31
2023-04-05T05:03:51.550Z,89.43
2023-04-05T05:06:27.083Z,90.57
2023-04-05T05:09:00.112Z,89.73
2023-04-05T05:11:33.802Z,90.88
2023-04-05T05:14:06.755Z,89.69
2023-04-05T05:16:39.748Z,90.16
2023-04-05T05:19:12.783Z,90.35
2023-04-05T05:21:49.362Z,90.22
2023-04-05T05:24:22.511Z,90.04
2023-04-05T05:26:55.499Z,90.42
2023-04-05T05:29:28.872Z,90.70
2023-04-05T05:32:01.843Z,89.46
2023-04-05T05:34:34.820Z,89.63
2023-04-05T05:37:09.717Z,91.23
2023-04-05T05:39:44.531Z,90.93
2023-04-05T05:42:17.484Z,90.93
2023-04-05T05:44:50.572Z,90.74
2023-04-05T05:47:23.563Z,88.04
2023-04-05T05:49:56.498Z,86.63
2023-04-05T05:52:30.884Z,85.88
2023-04-05T05:55:04.294Z,83.54
2023-04-05T05:57:38.753Z,80.69
2023-04-05T06:00:13.620Z,81.66
2023-04-05T06:02:46.738Z,79.65
2023-04-05T06:05:19.814Z,78.29
2023-04-05T06:07:54.102Z,77.45
2023-04-05T06:10:27.121Z,74.73
2023-04-05T06:13:00.269Z,69.51
2023-04-05T06:15:33.244Z,69.42
2023-04-05T06:18:06.397Z,69.92
2023-04-05T06:20:41.197Z,70.92
2023-04-05T06:23:16.097Z,70.33
2023-04-05T06:25:49.135Z,71.53
2023-04-05T06:28:22.063Z,71.02
2023-04-05T06:30:59.379Z,68.37
2023-04-05T06:33:32.316Z,66.77
2023-04-05T06:36:05.790Z,63.94
2023-04-05T06:38:40.109Z,62.32
2023-04-05T06:41:13.202Z,62.36
2023-04-05T06:43:46.328Z,59.71
2023-04-05T06:46:19.311Z,58.57
2023-04-05T06:48:53.522Z,60.75
2023-04-05T06:51:27.022Z,58.51
2023-04-05T06:54:01.326Z,58.04
2023-04-05T06:56:34.248Z,55.97
2023-04-05T06:59:07.233Z,57.12
2023-04-05T07:01:40.264Z,54.39
2023-04-05T07:04:13.863Z,53.98
2023-04-05T07:06:46.790Z,54.04
2023-04-05T07:09:22.228Z,54.33
2023-04-05T07:11:56.609Z,53.39
2023-04-05T07:14:31.027Z,50.70
2023-04-05T07:17:06.052Z,49.82
2023-04-05T07:19:39.047Z,49.44
2023-04-05T07:22:12.018Z,50.68
2023-04-05T07:24:48.511Z,48.83
2023-04-05T07:27:21.500Z,48.51
2023-04-05T07:29:54.454Z,48.71
2023-04-05T07:32:27.599Z,50.44
2023-04-05T07:35:00.745Z,51.77
2023-04-05T07:37:33.774Z,49.58
2023-04-05T07:40:10.957Z,50.35
2023-04-05T07:42:44.015Z,51.93
2023-04-05T07:45:17.069Z,49.87
2023-04-05T07:47:50.067Z,49.86
2023-04-05T07:50:23.118Z,48.79
2023-04-05T07:52:56.138Z,50.19
2023-04-05T07:55:30.450Z,49.90
2023-04-05T07:58:03.365Z,50.08
2023-04-05T08:00:37.040Z,48.63
2023-04-05T08:03:09.975Z,45.88
2023-04-05T08:05:43.014Z,46.68
2023-04-05T08:08:16.078Z,46.21
2023-04-05T08:10:50.341Z,44.34
2023-04-05T08:13:23.449Z,43.15
2023-04-05T08:15:57.369Z,43.78
2023-04-05T08:18:30.618Z,42.30
2023-04-05T08:21:03.679Z,40.92
2023-04-05T08:23:36.763Z,41.82
2023-04-05T08:26:11.256Z,37.81
2023-04-05T08:28:44.224Z,36.44
2023-04-05T08:31:17.225Z,39.49
2023-04-05T08:33:50.442Z,38.80
2023-04-05T08:36:23.477Z,39.94
2023-04-05T08:38:56.413Z,40.36
2023-04-05T08:41:36.851Z,39.20
2023-04-05T08:44:11.568Z,37.08
2023-04-05T08:46:45.342Z,38.45
2023-04-05T08:49:18.350Z,37.41
2023-04-05T08:51:51.334Z,36.67
2023-04-05T08:54:24.286Z,37.24
2023-04-05T08:57:01.069Z,38.30
2023-04-05T08:59:37.870Z,39.74
2023-04-05T09:02:17.235Z,39.41
2023-04-05T09:04:51.639Z,35.93
2023-04-05T09:07:26.434Z,38.33
2023-04-05T09:10:01.788Z,35.27
2023-04-05T09:12:38.519Z,34.84
2023-04-05T09:15:12.522Z,33.92
2023-04-05T09:17:45.622Z,34.38
2023-04-05T09:20:18.901Z,37.77
2023-04-05T09:22:51.831Z,37.00
2023-04-05T09:25:39.677Z,33.74
2023-04-05T09:28:14.096Z,36.13
2023-04-05T09:30:47.961Z,35.51
2023-04-05T09:33:22.163Z,33.81
2023-04-05T09:35:56.785Z,35.33
2023-04-05T09:38:44.580Z,35.67
2023-04-05T09:41:17.651Z,35.17
2023-04-05T09:43:54.156Z,34.98
2023-04-05T09:46:34.243Z,34.25
2023-04-05T09:49:10.258Z,34.04
2023-04-05T09:51:43.283Z,34.43
2023-04-05T09:54:17.307Z,35.59
2023-04-05T09:56:57.597Z,36.20
2023-04-05T09:59:34.278Z,36.64
2023-04-05T10:02:07.306Z,34.91
2023-04-05T10:04:41.689Z,34.68
2023-04-05T10:07:17.378Z,36.97
2023-04-05T10:09:50.443Z,35.34
2023-04-05T10:12:28.581Z,35.10
2023-04-05T10:15:02.937Z,35.03
2023-04-05T10:17:45.569Z,34.77
2023-04-05T10:20:21.043Z,33.55
2023-04-05T10:23:02.931Z,32.75
2023-04-05T10:25:53.052Z,33.07
2023-04-05T10:28:32.794Z,33.63
2023-04-05T10:31:21.081Z,35.34
2023-04-05T10:34:06.885Z,34.01
2023-04-05T10:36:52.207Z,34.74
2023-04-05T10:39:29.982Z,34.34
2023-04-05T10:42:14.210Z,34.17
2023-04-05T10:44:52.310Z,33.93
2023-04-05T10:47:29.758Z,33.65
2023-04-05T10:50:06.264Z,33.33
2023-04-05T10:52:41.469Z,33.72
2023-04-05T10:55:15.367Z,33.57
2023-04-05T10:57:49.984Z,34.76
2023-04-05T11:00:24.723Z,35.66
2023-04-05T11:02:59.339Z,34.55
2023-04-05T11:05:34.806Z,34.75
2023-04-05T11:08:09.831Z,36.21
2023-04-05T11:10:43.257Z,33.92
2023-04-05T11:13:16.413Z,33.98
2023-04-05T11:16:09.917Z,33.56
2023-04-05T11:18:48.171Z,35.02
2023-04-05T11:21:26.141Z,33.84
2023-04-05T11:24:06.589Z,34.34
2023-04-05T11:26:56.097Z,32.87
2023-04-05T11:29:49.538Z,35.16
2023-04-05T11:32:23.536Z,34.86
2023-04-05T11:35:06.347Z,34.26
2023-04-05T11:37:56.206Z,35.00
2023-04-05T11:40:31.254Z,34.55
2023-04-05T11:43:07.517Z,34.27
2023-04-05T11:45:43.463Z,34.20
2023-04-05T11:48:16.728Z,35.18
2023-04-05T11:50:52.528Z,34.33
2023-04-05T11:53:25.510Z,34.72
2023-04-05T11:56:09.502Z,35.01
2023-04-05T11:58:43.621Z,33.88
2023-04-05T12:01:16.562Z,34.82
2023-04-05T12:03:55.424Z,34.21
2023-04-05T12:06:29.968Z,33.86
2023-04-05T12:09:02.904Z,35.08
2023-04-05T12:11:36.808Z,36.05
2023-04-05T12:14:09.725Z,34.00
2023-04-05T12:16:50.762Z,34.54
2023-04-05T12:19:24.258Z,34.93
2023-04-05T12:21:58.655Z,32.82
2023-04-05T12:24:31.714Z,33.12
2023-04-05T12:27:04.898Z,33.61
2023-04-05T12:29:37.836Z,34.06
2023-04-05T12:32:12.036Z,34.69
2023-04-05T12:34:49.076Z,34.12
2023-04-05T12:37:23.455Z,33.85
2023-04-05T12:39:56.427Z,33.80
2023-04-05T12:42:35.680Z,32.77
2023-04-05T12:45:13.216Z,34.31
2023-04-05T12:47:51.542Z,33.06
2023-04-05T12:50:29.060Z,34.04
2023-04-05T12:53:07.447Z,33.73
2023-04-05T12:55:46.523Z,32.73
2023-04-05T12:58:20.861Z,32.05
2023-04-05T13:00:53.952Z,33.42
2023-04-05T13:03:28.136Z,33.22
2023-04-05T13:06:01.190Z,33.72
2023-04-05T13:08:36.564Z,34.05
2023-04-05T13:11:09.538Z,33.57
2023-04-05T13:13:42.521Z,32.39
2023-04-05T13:16:15.620Z,33.21
2023-04-05T13:18:49.051Z,33.62
2023-04-05T13:21:22.181Z,33.61
2023-04-05T13:23:56.511Z,32.81
2023-04-05T13:26:31.677Z,33.50
2023-04-05T13:29:05.236Z,34.02
2023-04-05T13:31:38.264Z,34.45
2023-04-05T13:34:11.364Z,34.59
2023-04-05T13:36:44.340Z,33.94
2023-04-05T13:39:18.654Z,32.85
2023-04-05T13:41:51.623Z,32.40
2023-04-05T13:44:24.722Z,33.33
2023-04-05T13:46:57.722Z,32.47
2023-04-05T13:49:30.746Z,33.28
2023-04-05T13:52:03.736Z,33.89
2023-04-05T13:54:38.147Z,34.03
2023-04-05T13:57:12.036Z,35.79
2023-04-05T13:59:45.293Z,33.89
2023-04-05T14:02:20.684Z,34.23
2023-04-05T14:04:53.921Z,33.33
2023-04-05T14:07:26.937Z,32.90
2023-04-05T14:10:01.294Z,33.68
2023-04-05T14:12:35.364Z,33.42
2023-04-05T14:15:09.414Z,34.53
2023-04-05T14:17:42.651Z,34.54
2023-04-05T14:20:15.789Z,33.82
2023-04-05T14:22:48.751Z,34.29
2023-04-05T14:25:23.033Z,34.73
2023-04-05T14:27:56.039Z,35.19
2023-04-05T14:30:29.212Z,33.93
2023-04-05T14:33:02.588Z,32.49
2023-04-05T14:35:35.715Z,34.01
2023-04-05T14:38:08.697Z,33.80
2023-04-05T14:40:43.893Z,32.68
2023-04-05T14:43:16.865Z,32.70
2023-04-05T14:45:49.927Z,32.39
2023-04-05T14:48:22.892Z,33.25
2023-04-05T14:50:56.764Z,33.31
2023-04-05T14:53:29.821Z,33.64
2023-04-05T14:56:04.590Z,33.51
2023-04-05T14:58:37.711Z,34.04
2023-04-05T15:01:11.033Z,33.31
2023-04-05T15:03:44.233Z,33.42
2023-04-05T15:06:17.343Z,32.23
2023-04-05T15:08:51.333Z,32.57
2023-04-05T15:11:25.640Z,33.05
2023-04-05T15:13:58.613Z,33.05
2023-04-05T15:16:31.597Z,32.74
2023-04-05T15:19:04.635Z,32.79
2023-04-05T15:21:39.010Z,33.34
2023-04-05T15:24:12.540Z,33.12
2023-04-05T15:26:46.855Z,34.36
2023-04-05T15:29:19.788Z,34.00
2023-04-05T15:31:52.921Z,33.86
2023-04-05T15:34:25.978Z,34.08
2023-04-05T15:36:59.011Z,33.33
2023-04-05T15:39:31.982Z,33.79
2023-04-05T15:42:06.626Z,33.04
2023-04-05T15:44:39.655Z,33.75
2023-04-05T15:47:12.610Z,33.03
2023-04-05T15:49:45.802Z,33.33
2023-04-05T15:52:19.088Z,34.37
2023-04-05T15:54:52.736Z,33.32
2023-04-05T15:57:27.013Z,34.54
2023-04-05T16:00:00.092Z,35.20
2023-04-05T16:02:33.213Z,34.55
2023-04-05T16:05:07.138Z,35.89
2023-04-05T16:07:40.175Z,35.00
2023-04-05T16:10:13.325Z,35.16
2023-04-05T16:12:47.629Z,35.72
2023-04-05T16:15:20.991Z,35.60
2023-04-05T16:17:53.996Z,34.48
2023-04-05T16:20:27.319Z,34.48
2023-04-05T16:23:00.373Z,34.17
2023-04-05T16:25:33.570Z,35.16
2023-04-05T16:28:08.085Z,35.49
2023-04-05T16:30:41.524Z,35.93
2023-04-05T16:33:14.550Z,34.91
2023-04-05T16:35:48.711Z,35.26
2023-04-05T16:38:21.710Z,35.31
2023-04-05T16:40:54.695Z,35.45
2023-04-05T16:43:29.496Z,34.89
2023-04-05T16:46:02.666Z,34.53
2023-04-05T16:48:36.195Z,34.79
2023-04-05T16:51:09.141Z,35.41
2023-04-05T16:53:42.155Z,35.29
2023-04-05T16:56:16.027Z,35.39
2023-04-05T16:58:51.276Z,35.83
2023-04-05T17:01:24.328Z,35.78
2023-04-05T17:03:59.791Z,36.24
2023-04-05T17:06:33.522Z,36.08
2023-04-05T17:09:06.694Z,36.13
2023-04-05T17:11:39.847Z,36.03
2023-04-05T17:14:14.122Z,35.00
2023-04-05T17:16:47.937Z,34.92
2023-04-05T17:19:20.905Z,35.35
2023-04-05T17:21:53.879Z,35.08
2023-04-05T17:24:27.519Z,34.62
2023-04-05T17:27:01.122Z,34.90
2023-04-05T17:29:35.448Z,35.94
2023-04-05T17:32:08.702Z,35.03
2023-04-05T17:34:41.901Z,36.20
2023-04-05T17:37:14.797Z,35.80
2023-04-05T17:39:47.744Z,33.95
2023-04-05T17:42:20.772Z,34.51
2023-04-05T17:44:56.658Z,37.54
2023-04-05T17:47:29.780Z,38.01
2023-04-05T17:50:03.079Z,38.72
2023-04-05T17:52:36.072Z,39.08
2023-04-05T17:55:10.299Z,40.21
2023-04-05T17:57:43.214Z,39.95
2023-04-05T18:00:18.840Z,40.07
2023-04-05T18:02:52.285Z,40.36
2023-04-05T18:05:27.060Z,40.06
2023-04-05T18:08:00.229Z,40.63
2023-04-05T18:10:33.326Z,40.84
2023-04-05T18:13:06.402Z,40.41
2023-04-05T18:15:41.315Z,41.61
2023-04-05T18:18:14.263Z,44.09
2023-04-05T18:20:50.770Z,46.13
2023-04-05T18:23:24.789Z,46.11
2023-04-05T18:25:59.544Z,46.04
2023-04-05T18:28:32.546Z,45.48
2023-04-05T18:31:09.524Z,45.50
2023-04-05T18:33:42.795Z,45.65
2023-04-05T18:36:15.782Z,45.86
2023-04-05T18:38:48.798Z,46.58
2023-04-05T18:41:21.943Z,47.71
2023-04-05T18:43:55.225Z,48.33
2023-04-05T18:46:29.559Z,49.26
2023-04-05T18:49:02.593Z,48.87
2023-04-05T18:51:35.618Z,49.54
2023-04-05T18:54:08.725Z,50.41
2023-04-05T18:56:41.695Z,50.22
2023-04-05T18:59:16.170Z,50.99
2023-04-05T19:01:50.598Z,52.75
2023-04-05T19:04:23.628Z,52.71
2023-04-05T19:06:57.599Z,54.81
2023-04-05T19:09:31.038Z,55.57
2023-04-05T19:12:04.283Z,55.47
2023-04-05T19:14:37.396Z,56.16
2023-04-05T19:17:11.727Z,57.16
2023-04-05T19:19:44.671Z,56.76
2023-04-05T19:22:17.678Z,57.47
2023-04-05T19:24:50.866Z,57.64
2023-04-05T19:27:23.803Z,58.45
2023-04-05T19:29:57.585Z,59.44
2023-04-05T19:32:31.949Z,58.80
2023-04-05T19:35:06.910Z,59.43
2023-04-05T19:37:39.950Z,59.76
2023-04-05T19:40:13.126Z,60.67
2023-04-05T19:42:48.976Z,60.54
2023-04-05T19:45:26.775Z,60.48
2023-04-05T19:48:03.240Z,60.40
2023-04-05T19:50:55.016Z,60.58
2023-04-05T19:53:41.704Z,61.08
2023-04-05T19:56:18.717Z,61.80
2023-04-05T19:58:59.963Z,61.82
2023-04-05T20:01:36.071Z,61.86
2023-04-05T20:04:16.119Z,62.39
2023-04-05T20:06:53.164Z,62.92
2023-04-05T20:09:29.238Z,62.87
2023-04-05T20:12:05.637Z,63.09
2023-04-05T20:14:43.005Z,63.16
2023-04-05T20:17:18.869Z,63.46
2023-04-05T20:20:01.044Z,63.74
2023-04-05T20:22:34.198Z,63.82
2023-04-05T20:25:38.447Z,63.88
2023-04-05T20:28:38.621Z,64.56
2023-04-05T20:31:18.876Z,64.49
2023-04-05T20:33:55.078Z,64.19
2023-04-05T20:36:34.456Z,64.55
2023-04-05T20:39:08.057Z,64.81
2023-04-05T20:41:41.465Z,64.80
2023-04-05T20:44:14.460Z,65.00
2023-04-05T20:46:47.436Z,65.59
2023-04-05T20:49:20.417Z,65.80
2023-04-05T20:51:55.675Z,66.90
2023-04-05T20:54:28.956Z,66.62
2023-04-05T20:57:02.949Z,66.88
2023-04-05T20:59:36.039Z,66.91
2023-04-05T21:02:09.130Z,67.70
2023-04-05T21:04:42.419Z,67.82
2023-04-05T21:07:17.575Z,68.22
2023-04-05T21:09:50.660Z,68.08
2023-04-05T21:12:23.614Z,67.96
2023-04-05T21:14:56.569Z,68.19
2023-04-05T21:17:29.691Z,68.41
2023-04-05T21:20:02.678Z,69.67
2023-04-05T21:22:38.027Z,69.32
2023-04-05T21:25:11.236Z,68.16
2023-04-05T21:27:44.205Z,68.55
2023-04-05T21:30:17.988Z,67.95
2023-04-05T21:32:51.316Z,67.85
2023-04-05T21:35:24.578Z,68.07
2023-04-05T21:37:58.951Z,68.38
2023-04-05T21:40:32.299Z,69.12
2023-04-05T21:43:05.463Z,68.66
2023-04-05T21:45:38.425Z,69.35
2023-04-05T21:48:11.395Z,69.49
2023-04-05T21:50:44.370Z,69.67
2023-04-05T21:53:18.835Z,70.03
2023-04-05T21:55:52.508Z,70.28
2023-04-05T21:58:26.411Z,70.56
2023-04-05T22:01:00.279Z,70.50
2023-04-05T22:03:33.308Z,70.33
2023-04-05T22:06:06.858Z,70.46
2023-04-05T22:08:41.200Z,71.09
2023-04-05T22:11:14.310Z,71.45
2023-04-05T22:13:47.483Z,71.58
2023-04-05T22:16:20.471Z,71.15
2023-04-05T22:18:53.407Z,72.50
2023-04-05T22:21:26.532Z,72.36
2023-04-05T22:24:00.962Z,72.24
2023-04-05T22:26:34.272Z,72.32
2023-04-05T22:29:07.984Z,73.16
2023-04-05T22:31:41.437Z,72.58
2023-04-05T22:34:14.447Z,73.85
2023-04-05T22:36:47.435Z,73.79
2023-04-05T22:39:21.777Z,74.02
2023-04-05T22:41:54.785Z,74.29
2023-04-05T22:44:27.706Z,73.84
2023-04-05T22:47:00.675Z,74.30
2023-04-05T22:49:33.675Z,74.54
2023-04-05T22:52:06.744Z,74.31
2023-04-05T22:54:41.289Z,74.66
2023-04-05T22:57:14.343Z,75.18
2023-04-05T22:59:47.271Z,74.49
2023-04-05T23:02:20.805Z,74.40
2023-04-05T23:04:53.787Z,74.46
2023-04-05T23:07:29.019Z,74.54
2023-04-05T23:10:03.314Z,74.63
2023-04-05T23:12:36.291Z,75.28
2023-04-05T23:15:10.549Z,75.07
2023-04-05T23:17:43.531Z,75.64
2023-04-05T23:20:16.827Z,75.72
2023-04-05T23:22:49.972Z,76.10
2023-04-05T23:25:24.360Z,76.55
2023-04-05T23:27:57.297Z,77.26
2023-04-05T23:30:30.228Z,77.09
2023-04-05T23:33:03.291Z,77.24
2023-04-05T23:35:36.362Z,76.81
2023-04-05T23:38:09.325Z,77.78
2023-04-05T23:40:43.586Z,77.31
2023-04-05T23:43:16.635Z,78.02
2023-04-05T23:45:49.585Z,77.24
2023-04-05T23:48:22.524Z,77.42
2023-04-05T23:50:55.456Z,77.42
2023-04-05T23:53:28.410Z,77.25
2023-04-05T23:56:02.734Z,77.75
2023-04-05T23:58:35.737Z,77.89
